createdAt,value
2023-06-07T00:02:13.787Z,17.05
2023-06-07T00:04:43.471Z,17.06
2023-06-07T00:07:11.738Z,17.03
2023-06-07T00:09:38.211Z,17.00
2023-06-07T00:12:07.848Z,16.98
2023-06-07T00:14:34.200Z,16.98
2023-06-07T00:17:00.508Z,17.00
2023-06-07T00:19:27.586Z,17.01
2023-06-07T00:21:54.034Z,16.98
2023-06-07T00:24:21.309Z,16.96
2023-06-07T00:26:47.940Z,16.94
2023-06-07T00:29:17.464Z,16.94
2023-06-07T00:31:43.780Z,16.95
2023-06-07T00:34:10.429Z,16.94
2023-06-07T00:36:36.889Z,16.90
2023-06-07T00:39:06.155Z,16.88
2023-06-07T00:41:32.607Z,16.86
2023-06-07T00:43:58.858Z,16.86
2023-06-07T00:46:28.978Z,16.86
2023-06-07T00:48:57.900Z,16.85
2023-06-07T00:51:27.223Z,16.89
2023-06-07T00:53:54.323Z,16.92
2023-06-07T00:56:20.772Z,16.97
2023-06-07T00:58:47.705Z,17.01
2023-06-07T01:01:14.143Z,17.03
2023-06-07T01:03:41.011Z,17.07
2023-06-07T01:06:07.607Z,17.08
2023-06-07T01:08:34.167Z,17.09
2023-06-07T01:11:02.738Z,17.07
2023-06-07T01:13:30.838Z,17.04
2023-06-07T01:15:57.355Z,17.02
2023-06-07T01:18:25.561Z,17.03
2023-06-07T01:20:56.489Z,17.06
2023-06-07T01:23:36.075Z,17.08
2023-06-07T01:26:03.294Z,17.07
2023-06-07T01:28:34.856Z,17.05
2023-06-07T01:31:02.430Z,17.02
2023-06-07T01:33:30.993Z,16.99
2023-06-07T01:35:59.097Z,16.96
2023-06-07T01:38:28.772Z,16.96
2023-06-07T01:40:55.970Z,16.94
2023-06-07T01:43:22.986Z,16.93
2023-06-07T01:45:51.060Z,16.92
2023-06-07T01:48:17.639Z,16.91
2023-06-07T01:50:43.954Z,16.88
2023-06-07T01:53:10.839Z,16.86
2023-06-07T01:55:38.244Z,16.83
2023-06-07T01:58:10.581Z,16.81
2023-06-07T02:00:49.576Z,16.79
2023-06-07T02:03:20.908Z,16.79
2023-06-07T02:05:53.915Z,16.79
2023-06-07T02:08:40.013Z,16.77
2023-06-07T02:11:07.673Z,16.74
2023-06-07T02:13:36.616Z,16.69
2023-06-07T02:16:06.508Z,16.65
2023-06-07T02:18:38.142Z,16.60
2023-06-07T02:21:04.747Z,16.54
2023-06-07T02:23:31.137Z,16.51
2023-06-07T02:25:57.440Z,16.49
2023-06-07T02:28:23.753Z,16.48
2023-06-07T02:30:50.152Z,16.44
2023-06-07T02:33:17.172Z,16.42
2023-06-07T02:35:46.743Z,16.40
2023-06-07T02:38:13.622Z,16.37
2023-06-07T02:40:40.213Z,16.35
2023-06-07T02:43:06.589Z,16.31
2023-06-07T02:45:32.961Z,16.28
2023-06-07T02:47:59.423Z,16.28
2023-06-07T02:50:25.878Z,16.21
2023-06-07T02:52:53.013Z,16.17
2023-06-07T02:55:19.467Z,16.16
2023-06-07T02:57:45.744Z,16.15
2023-06-07T03:00:12.651Z,16.14
2023-06-07T03:02:39.516Z,16.13
2023-06-07T03:05:06.919Z,16.10
2023-06-07T03:07:36.225Z,16.05
2023-06-07T03:10:04.107Z,16.01
2023-06-07T03:12:30.714Z,15.99
2023-06-07T03:14:57.048Z,15.92
2023-06-07T03:17:23.585Z,15.89
2023-06-07T03:19:50.664Z,15.86
2023-06-07T03:22:18.023Z,15.84
2023-06-07T03:24:44.366Z,15.83
2023-06-07T03:27:10.730Z,15.82
2023-06-07T03:29:37.098Z,15.81
2023-06-07T03:32:03.577Z,15.80
2023-06-07T03:34:30.888Z,15.77
2023-06-07T03:36:57.423Z,15.73
2023-06-07T03:39:23.681Z,15.74
2023-06-07T03:41:50.011Z,15.77
2023-06-07T03:44:16.330Z,15.76
2023-06-07T03:46:43.261Z,15.76
2023-06-07T03:49:09.657Z,15.77
2023-06-07T03:51:38.394Z,15.78
2023-06-07T03:54:04.812Z,15.76
2023-06-07T03:56:31.110Z,15.68
2023-06-07T03:58:58.184Z,15.61
2023-06-07T04:01:26.910Z,15.53
2023-06-07T04:03:53.592Z,15.52
2023-06-07T04:06:25.173Z,15.50
2023-06-07T04:08:53.362Z,15.48
2023-06-07T04:11:20.241Z,15.50
2023-06-07T04:13:46.569Z,15.53
2023-06-07T04:16:12.966Z,15.56
2023-06-07T04:18:39.341Z,15.61
2023-06-07T04:21:06.859Z,15.64
2023-06-07T04:23:33.292Z,15.66
2023-06-07T04:26:00.724Z,15.66
2023-06-07T04:28:28.615Z,15.67
2023-06-07T04:30:58.089Z,15.67
2023-06-07T04:33:24.755Z,15.67
2023-06-07T04:35:51.546Z,15.70
2023-06-07T04:38:23.352Z,15.76
2023-06-07T04:40:51.129Z,15.82
2023-06-07T04:43:21.407Z,15.85
2023-06-07T04:45:55.592Z,15.87
2023-06-07T04:48:27.010Z,15.93
2023-06-07T04:51:06.313Z,15.98
2023-06-07T04:53:37.072Z,16.00
2023-06-07T04:56:04.820Z,16.05
2023-06-07T04:58:32.578Z,16.09
2023-06-07T05:00:59.000Z,16.13
2023-06-07T05:03:25.829Z,16.16
2023-06-07T05:05:53.147Z,16.21
2023-06-07T05:08:19.643Z,16.28
2023-06-07T05:10:46.594Z,16.35
2023-06-07T05:13:12.919Z,16.42
2023-06-07T05:15:40.559Z,16.46
2023-06-07T05:18:08.393Z,16.50
2023-06-07T05:20:34.994Z,16.54
2023-06-07T05:23:01.298Z,16.58
2023-06-07T05:25:27.659Z,16.65
2023-06-07T05:28:08.133Z,16.71
2023-06-07T05:30:39.823Z,16.78
2023-06-07T05:33:07.477Z,16.83
2023-06-07T05:35:33.981Z,16.86
2023-06-07T05:38:00.504Z,16.99
2023-06-07T05:40:26.831Z,17.03
2023-06-07T05:42:54.297Z,17.17
2023-06-07T05:45:22.003Z,17.25
2023-06-07T05:47:49.307Z,17.37
2023-06-07T05:50:16.178Z,17.49
2023-06-07T05:52:42.656Z,17.65
2023-06-07T05:55:09.132Z,17.83
2023-06-07T05:57:36.369Z,18.03
2023-06-07T06:00:06.123Z,18.23
2023-06-07T06:02:32.972Z,18.46
2023-06-07T06:04:59.566Z,18.64
2023-06-07T06:07:26.096Z,18.81
2023-06-07T06:09:52.597Z,18.95
2023-06-07T06:12:19.086Z,19.09
2023-06-07T06:14:45.584Z,19.24
2023-06-07T06:17:12.091Z,19.38
2023-06-07T06:19:38.585Z,19.51
2023-06-07T06:22:04.949Z,19.58
2023-06-07T06:24:31.415Z,19.64
2023-06-07T06:26:57.903Z,19.72
2023-06-07T06:29:26.400Z,19.77
2023-06-07T06:31:52.750Z,19.82
2023-06-07T06:34:19.930Z,19.85
2023-06-07T06:36:46.982Z,19.89
2023-06-07T06:39:13.764Z,19.96
2023-06-07T06:41:40.226Z,20.05
2023-06-07T06:44:06.615Z,20.11
2023-06-07T06:46:33.026Z,20.16
2023-06-07T06:49:11.310Z,20.21
2023-06-07T06:51:38.876Z,20.28
2023-06-07T06:54:05.949Z,20.29
2023-06-07T06:56:32.386Z,20.32
2023-06-07T06:58:58.726Z,20.42
2023-06-07T07:01:25.103Z,20.54
2023-06-07T07:03:52.102Z,20.67
2023-06-07T07:06:19.501Z,20.73
2023-06-07T07:08:46.014Z,20.83
2023-06-07T07:11:12.731Z,20.93
2023-06-07T07:13:39.157Z,21.06
2023-06-07T07:16:05.942Z,21.21
2023-06-07T07:18:32.388Z,21.38
2023-06-07T07:20:58.935Z,21.48
2023-06-07T07:23:25.336Z,21.57
2023-06-07T07:25:51.793Z,21.70
2023-06-07T07:28:18.486Z,21.77
2023-06-07T07:30:44.840Z,21.83
2023-06-07T07:33:11.293Z,21.98
2023-06-07T07:35:37.740Z,22.06
2023-06-07T07:38:06.300Z,22.07
2023-06-07T07:40:32.656Z,22.15
2023-06-07T07:42:59.350Z,22.25
2023-06-07T07:45:26.401Z,22.42
2023-06-07T07:47:52.826Z,22.63
2023-06-07T07:50:19.227Z,22.74
2023-06-07T07:52:45.571Z,22.80
2023-06-07T07:55:12.276Z,22.87
2023-06-07T07:57:38.677Z,22.81
2023-06-07T08:00:07.220Z,22.68
2023-06-07T08:02:33.933Z,22.56
2023-06-07T08:05:00.327Z,22.56
2023-06-07T08:07:26.690Z,22.58
2023-06-07T08:09:53.102Z,22.53
2023-06-07T08:12:19.507Z,22.55
2023-06-07T08:14:46.093Z,22.50
2023-06-07T08:17:12.522Z,22.50
2023-06-07T08:19:38.948Z,22.52
2023-06-07T08:22:05.734Z,22.42
2023-06-07T08:24:32.268Z,22.40
2023-06-07T08:26:58.973Z,22.48
2023-06-07T08:29:26.619Z,22.51
2023-06-07T08:31:54.577Z,22.47
2023-06-07T08:34:27.782Z,22.56
2023-06-07T08:36:55.035Z,22.69
2023-06-07T08:39:22.024Z,22.92
2023-06-07T08:41:48.414Z,23.16
2023-06-07T08:44:14.771Z,23.63
2023-06-07T08:46:42.927Z,24.20
2023-06-07T08:49:11.912Z,24.42
2023-06-07T08:51:42.408Z,24.80
2023-06-07T08:54:11.455Z,25.84
2023-06-07T08:56:39.749Z,26.47
2023-06-07T08:59:06.786Z,26.58
2023-06-07T09:01:37.362Z,26.65
2023-06-07T09:04:04.320Z,26.53
2023-06-07T09:06:30.768Z,26.29
2023-06-07T09:08:57.698Z,26.56
2023-06-07T09:11:24.137Z,27.65
2023-06-07T09:13:50.806Z,28.68
2023-06-07T09:16:18.244Z,28.83
2023-06-07T09:18:55.155Z,28.77
2023-06-07T09:21:29.416Z,29.08
2023-06-07T09:24:01.486Z,29.24
2023-06-07T09:26:39.676Z,28.61
2023-06-07T09:29:10.604Z,27.44
2023-06-07T09:31:38.709Z,26.68
2023-06-07T09:34:25.671Z,26.39
2023-06-07T09:36:57.758Z,26.31
2023-06-07T09:39:26.288Z,25.90
2023-06-07T09:41:53.890Z,25.37
2023-06-07T09:44:29.873Z,25.11
2023-06-07T09:46:57.584Z,24.98
2023-06-07T09:49:28.449Z,24.97
2023-06-07T09:51:55.398Z,25.04
2023-06-07T09:54:37.626Z,25.02
2023-06-07T09:57:10.836Z,25.07
2023-06-07T09:59:38.606Z,25.21
2023-06-07T10:02:25.749Z,25.31
2023-06-07T10:04:57.367Z,25.15
2023-06-07T10:07:28.576Z,25.09
2023-06-07T10:09:58.645Z,24.91
2023-06-07T10:12:29.972Z,24.79
2023-06-07T10:14:59.733Z,24.69
2023-06-07T10:17:34.592Z,24.51
2023-06-07T10:20:03.714Z,24.33
2023-06-07T10:22:38.882Z,24.30
2023-06-07T10:25:17.508Z,24.42
2023-06-07T10:27:49.949Z,24.89
2023-06-07T10:30:17.359Z,25.34
2023-06-07T10:32:45.383Z,25.80
2023-06-07T10:35:15.711Z,26.47
2023-06-07T10:37:43.867Z,27.07
2023-06-07T10:40:11.785Z,27.22
2023-06-07T10:42:42.557Z,27.14
2023-06-07T10:45:15.970Z,26.85
2023-06-07T10:47:43.152Z,26.61
2023-06-07T10:50:31.257Z,26.38
2023-06-07T10:52:59.526Z,26.06
2023-06-07T10:55:28.243Z,25.89
2023-06-07T10:57:55.416Z,26.23
2023-06-07T11:00:26.840Z,26.51
2023-06-07T11:03:22.620Z,26.94
2023-06-07T11:05:55.219Z,27.34
2023-06-07T11:08:22.878Z,27.60
2023-06-07T11:10:49.323Z,27.41
2023-06-07T11:13:15.831Z,26.97
2023-06-07T11:15:42.412Z,26.74
2023-06-07T11:18:14.944Z,27.13
2023-06-07T11:20:44.690Z,27.33
2023-06-07T11:23:31.513Z,27.36
2023-06-07T11:26:09.803Z,27.19
2023-06-07T11:28:40.769Z,27.03
2023-06-07T11:31:12.646Z,26.99
2023-06-07T11:33:41.910Z,27.13
2023-06-07T11:36:10.484Z,27.47
2023-06-07T11:38:38.418Z,27.80
2023-06-07T11:41:06.186Z,27.92
2023-06-07T11:43:32.855Z,27.95
2023-06-07T11:45:59.599Z,28.12
2023-06-07T11:48:30.420Z,28.31
2023-06-07T11:50:57.878Z,28.47
2023-06-07T11:53:24.725Z,28.64
2023-06-07T11:55:51.230Z,28.73
2023-06-07T11:58:17.673Z,28.94
2023-06-07T12:00:47.746Z,29.13
2023-06-07T12:03:14.853Z,29.11
2023-06-07T12:05:41.475Z,29.00
2023-06-07T12:08:16.368Z,29.20
2023-06-07T12:10:42.753Z,29.40
2023-06-07T12:13:23.034Z,29.42
2023-06-07T12:15:53.295Z,29.28
2023-06-07T12:18:23.770Z,29.03
2023-06-07T12:21:05.689Z,29.17
2023-06-07T12:23:32.834Z,29.34
2023-06-07T12:26:08.116Z,29.51
2023-06-07T12:28:34.862Z,29.48
2023-06-07T12:31:01.266Z,29.27
2023-06-07T12:33:28.581Z,29.08
2023-06-07T12:36:01.739Z,28.98
2023-06-07T12:38:28.323Z,28.99
2023-06-07T12:40:54.741Z,28.87
2023-06-07T12:43:21.198Z,28.34
2023-06-07T12:45:47.640Z,27.67
2023-06-07T12:48:14.029Z,27.01
2023-06-07T12:50:40.437Z,26.62
2023-06-07T12:53:07.092Z,26.73
2023-06-07T12:55:33.510Z,27.15
2023-06-07T12:58:00.447Z,27.67
2023-06-07T13:00:26.988Z,27.95
2023-06-07T13:02:53.633Z,28.20
2023-06-07T13:05:20.407Z,28.52
2023-06-07T13:07:47.047Z,28.93
2023-06-07T13:10:13.940Z,29.25
2023-06-07T13:12:40.824Z,29.40
2023-06-07T13:15:07.925Z,29.51
2023-06-07T13:17:35.503Z,29.34
2023-06-07T13:20:02.243Z,29.26
2023-06-07T13:22:31.898Z,28.99
2023-06-07T13:24:58.774Z,28.52
2023-06-07T13:27:27.766Z,28.00
2023-06-07T13:29:54.680Z,27.83
2023-06-07T13:32:21.194Z,27.88
2023-06-07T13:34:47.676Z,28.02
2023-06-07T13:37:14.066Z,28.45
2023-06-07T13:39:40.640Z,28.83
2023-06-07T13:42:07.600Z,29.21
2023-06-07T13:44:34.463Z,29.25
2023-06-07T13:47:01.940Z,29.09
2023-06-07T13:49:28.467Z,28.62
2023-06-07T13:51:55.089Z,28.15
2023-06-07T13:54:21.406Z,27.83
2023-06-07T13:56:47.798Z,27.67
2023-06-07T13:59:14.919Z,27.91
2023-06-07T14:01:41.429Z,28.21
2023-06-07T14:04:08.588Z,28.52
2023-06-07T14:06:35.498Z,28.61
2023-06-07T14:09:02.060Z,28.69
2023-06-07T14:11:28.568Z,28.71
2023-06-07T14:13:54.900Z,28.75
2023-06-07T14:16:21.912Z,28.66
2023-06-07T14:18:48.954Z,28.92
2023-06-07T14:21:15.785Z,29.14
2023-06-07T14:23:42.842Z,29.31
2023-06-07T14:26:09.752Z,29.17
2023-06-07T14:28:36.290Z,29.06
2023-06-07T14:31:02.863Z,29.05
2023-06-07T14:33:29.271Z,28.79
2023-06-07T14:35:55.612Z,28.31
2023-06-07T14:38:22.003Z,27.91
2023-06-07T14:40:48.442Z,27.44
2023-06-07T14:43:14.767Z,26.99
2023-06-07T14:45:41.141Z,26.83
2023-06-07T14:48:07.525Z,26.73
2023-06-07T14:50:34.930Z,26.94
2023-06-07T14:53:01.685Z,27.20
2023-06-07T14:55:28.119Z,27.59
2023-06-07T14:57:54.855Z,27.86
2023-06-07T15:00:21.777Z,27.99
2023-06-07T15:02:48.207Z,28.12
2023-06-07T15:05:14.917Z,28.36
2023-06-07T15:07:41.276Z,28.73
2023-06-07T15:10:08.315Z,29.12
2023-06-07T15:12:34.873Z,29.16
2023-06-07T15:15:01.289Z,29.01
2023-06-07T15:17:27.711Z,28.72
2023-06-07T15:19:54.452Z,28.50
2023-06-07T15:22:20.965Z,28.21
2023-06-07T15:24:50.277Z,27.83
2023-06-07T15:27:16.663Z,27.65
2023-06-07T15:29:43.120Z,27.64
2023-06-07T15:32:09.642Z,27.86
2023-06-07T15:34:36.040Z,28.11
2023-06-07T15:37:02.519Z,28.16
2023-06-07T15:39:28.882Z,28.23
2023-06-07T15:41:55.332Z,28.34
2023-06-07T15:44:21.899Z,28.46
2023-06-07T15:46:49.161Z,28.49
2023-06-07T15:49:18.034Z,28.44
2023-06-07T15:51:44.537Z,28.60
2023-06-07T15:54:10.958Z,28.67
2023-06-07T15:56:37.816Z,28.61
2023-06-07T15:59:04.211Z,28.63
2023-06-07T16:01:30.767Z,28.54
2023-06-07T16:03:57.352Z,28.27
2023-06-07T16:06:24.031Z,28.09
2023-06-07T16:08:51.264Z,28.06
2023-06-07T16:11:17.711Z,28.08
2023-06-07T16:13:44.044Z,28.25
2023-06-07T16:16:10.406Z,28.36
2023-06-07T16:18:37.824Z,28.48
2023-06-07T16:21:04.191Z,28.33
2023-06-07T16:23:30.626Z,27.99
2023-06-07T16:25:57.035Z,27.74
2023-06-07T16:28:23.484Z,27.44
2023-06-07T16:30:49.869Z,27.04
2023-06-07T16:33:16.310Z,26.71
2023-06-07T16:35:43.674Z,26.54
2023-06-07T16:38:10.065Z,26.39
2023-06-07T16:40:36.419Z,26.23
2023-06-07T16:43:02.782Z,26.06
2023-06-07T16:45:29.234Z,25.95
2023-06-07T16:47:55.687Z,25.84
2023-06-07T16:50:22.069Z,25.77
2023-06-07T16:52:48.527Z,25.65
2023-06-07T16:55:14.978Z,25.59
2023-06-07T16:57:41.344Z,25.47
2023-06-07T17:00:08.594Z,25.38
2023-06-07T17:02:35.262Z,25.34
2023-06-07T17:05:01.801Z,25.21
2023-06-07T17:07:28.124Z,25.21
2023-06-07T17:09:54.533Z,25.20
2023-06-07T17:12:21.048Z,25.32
2023-06-07T17:14:49.572Z,25.48
2023-06-07T17:17:16.454Z,25.58
2023-06-07T17:19:43.507Z,25.74
2023-06-07T17:22:10.087Z,25.84
2023-06-07T17:24:37.034Z,25.97
2023-06-07T17:27:06.403Z,26.06
2023-06-07T17:29:32.781Z,26.06
2023-06-07T17:31:59.246Z,26.07
2023-06-07T17:34:25.819Z,25.97
2023-06-07T17:36:52.669Z,25.91
2023-06-07T17:39:20.957Z,25.88
2023-06-07T17:41:47.294Z,25.84
2023-06-07T17:44:13.613Z,25.80
2023-06-07T17:46:40.104Z,25.85
2023-06-07T17:49:06.471Z,25.90
2023-06-07T17:51:33.271Z,25.93
2023-06-07T17:54:01.575Z,25.97
2023-06-07T17:56:28.716Z,25.92
2023-06-07T17:58:56.265Z,25.87
2023-06-07T18:01:23.620Z,25.82
2023-06-07T18:03:51.802Z,25.78
2023-06-07T18:06:22.388Z,25.78
2023-06-07T18:08:48.758Z,25.78
2023-06-07T18:11:15.420Z,25.75
2023-06-07T18:13:41.885Z,25.69
2023-06-07T18:16:08.293Z,25.62
2023-06-07T18:18:35.289Z,25.57
2023-06-07T18:21:01.872Z,25.52
2023-06-07T18:23:28.424Z,25.47
2023-06-07T18:25:54.873Z,25.36
2023-06-07T18:28:21.259Z,25.30
2023-06-07T18:30:47.786Z,25.23
2023-06-07T18:33:14.175Z,25.15
2023-06-07T18:35:40.568Z,25.07
2023-06-07T18:38:06.968Z,25.03
2023-06-07T18:40:33.575Z,24.96
2023-06-07T18:42:59.930Z,24.93
2023-06-07T18:45:26.954Z,24.81
2023-06-07T18:47:53.533Z,24.74
2023-06-07T18:50:21.080Z,24.67
2023-06-07T18:52:47.566Z,24.55
2023-06-07T18:55:14.015Z,24.52
2023-06-07T18:57:40.789Z,24.44
2023-06-07T19:00:07.918Z,24.34
2023-06-07T19:02:34.536Z,24.26
2023-06-07T19:05:01.088Z,24.20
2023-06-07T19:07:27.499Z,24.14
2023-06-07T19:09:53.918Z,24.03
2023-06-07T19:12:20.528Z,23.91
2023-06-07T19:14:46.972Z,23.94
2023-06-07T19:17:14.123Z,23.80
2023-06-07T19:19:40.576Z,23.76
2023-06-07T19:22:09.935Z,23.68
2023-06-07T19:24:43.414Z,23.59
2023-06-07T19:27:11.263Z,23.54
2023-06-07T19:29:38.914Z,23.49
2023-06-07T19:32:07.845Z,23.49
2023-06-07T19:34:36.010Z,23.43
2023-06-07T19:37:03.059Z,23.41
2023-06-07T19:39:29.718Z,23.42
2023-06-07T19:42:00.994Z,23.37
2023-06-07T19:44:28.009Z,23.38
2023-06-07T19:46:54.891Z,23.33
2023-06-07T19:49:21.489Z,23.31
2023-06-07T19:51:47.870Z,23.28
2023-06-07T19:54:14.327Z,23.24
2023-06-07T19:56:40.686Z,23.18
2023-06-07T19:59:07.612Z,23.13
2023-06-07T20:01:34.229Z,23.08
2023-06-07T20:04:00.988Z,23.03
2023-06-07T20:06:27.401Z,22.90
2023-06-07T20:08:54.257Z,22.90
2023-06-07T20:11:21.958Z,22.87
2023-06-07T20:13:48.464Z,22.83
2023-06-07T20:16:14.840Z,22.80
2023-06-07T20:18:41.910Z,22.67
2023-06-07T20:21:08.289Z,22.65
2023-06-07T20:23:34.628Z,22.59
2023-06-07T20:26:01.181Z,22.52
2023-06-07T20:28:27.541Z,22.57
2023-06-07T20:30:53.912Z,22.54
2023-06-07T20:33:20.293Z,22.55
2023-06-07T20:35:46.622Z,22.54
2023-06-07T20:38:12.983Z,22.49
2023-06-07T20:40:39.380Z,22.44
2023-06-07T20:43:05.803Z,22.49
2023-06-07T20:45:32.171Z,22.44
2023-06-07T20:47:58.542Z,22.37
2023-06-07T20:50:25.042Z,22.29
2023-06-07T20:52:51.591Z,22.26
2023-06-07T20:55:17.944Z,22.23
2023-06-07T20:57:44.280Z,22.16
2023-06-07T21:00:11.764Z,22.12
2023-06-07T21:02:38.524Z,22.07
2023-06-07T21:05:05.367Z,21.99
2023-06-07T21:07:31.732Z,21.95
2023-06-07T21:09:58.080Z,21.89
2023-06-07T21:12:24.394Z,21.80
2023-06-07T21:14:52.240Z,21.74
2023-06-07T21:17:18.617Z,21.66
2023-06-07T21:19:45.139Z,21.57
2023-06-07T21:22:11.473Z,21.51
2023-06-07T21:24:37.801Z,21.50
2023-06-07T21:27:04.501Z,21.42
2023-06-07T21:29:30.854Z,21.36
2023-06-07T21:31:57.295Z,21.16
2023-06-07T21:34:23.621Z,21.19
2023-06-07T21:36:50.231Z,21.14
2023-06-07T21:39:16.653Z,21.07
2023-06-07T21:41:43.085Z,20.98
2023-06-07T21:44:09.716Z,20.87
2023-06-07T21:46:36.124Z,20.87
2023-06-07T21:49:02.578Z,20.76
2023-06-07T21:51:28.990Z,20.75
2023-06-07T21:53:55.483Z,20.69
2023-06-07T21:56:21.951Z,20.52
2023-06-07T21:58:48.281Z,20.48
2023-06-07T22:01:14.857Z,20.40
2023-06-07T22:03:41.263Z,20.39
2023-06-07T22:06:07.616Z,20.40
2023-06-07T22:08:33.953Z,20.37
2023-06-07T22:11:00.356Z,20.35
2023-06-07T22:13:26.730Z,20.31
2023-06-07T22:15:53.093Z,20.23
2023-06-07T22:18:20.384Z,20.17
2023-06-07T22:20:47.892Z,20.15
2023-06-07T22:23:14.543Z,20.09
2023-06-07T22:25:41.968Z,19.96
2023-06-07T22:28:10.684Z,20.03
2023-06-07T22:30:40.133Z,20.05
2023-06-07T22:33:08.616Z,19.99
2023-06-07T22:35:35.865Z,20.06
2023-06-07T22:38:06.180Z,19.99
2023-06-07T22:40:34.273Z,20.07
2023-06-07T22:43:01.459Z,20.01
2023-06-07T22:45:29.353Z,20.04
2023-06-07T22:48:10.523Z,20.06
2023-06-07T22:50:38.526Z,20.04
2023-06-07T22:53:06.544Z,20.05
2023-06-07T22:55:33.811Z,19.92
2023-06-07T22:58:01.745Z,19.96
2023-06-07T23:00:29.225Z,19.94
2023-06-07T23:02:58.394Z,19.90
2023-06-07T23:05:28.212Z,19.94
2023-06-07T23:07:56.529Z,19.91
2023-06-07T23:10:35.677Z,19.89
2023-06-07T23:13:08.886Z,19.84
2023-06-07T23:15:37.097Z,19.79
2023-06-07T23:18:03.882Z,19.83
2023-06-07T23:20:33.657Z,19.79
2023-06-07T23:23:03.817Z,19.75
2023-06-07T23:25:30.948Z,19.76
2023-06-07T23:27:58.270Z,19.76
2023-06-07T23:30:24.654Z,19.74
2023-06-07T23:32:51.032Z,19.71
2023-06-07T23:35:17.400Z,19.69
2023-06-07T23:37:43.702Z,19.70
2023-06-07T23:40:10.784Z,19.65
2023-06-07T23:42:37.137Z,19.68
2023-06-07T23:45:04.437Z,19.66
2023-06-07T23:47:31.187Z,19.54
2023-06-07T23:49:57.596Z,19.58
2023-06-07T23:52:23.925Z,19.53
2023-06-07T23:54:50.291Z,19.53
2023-06-07T23:57:16.827Z,19.49
2023-06-07T23:59:43.179Z,19.47
